Time;durP1;ratioP1;P1;durP2;ratioP2;P2;SDS_P1;SDS_P2;PMS_P1;PMS_P2;Temp;Humidity;BMP_temperature;BMP_pressure;BME280_temperature;BME280_humidity;BME280_pressure;Samples;Min_cycle;Max_cycle;Signal;HPM_P1;HPM_P2
2021/05/08 00:01:59;;;;;;;148.40;54.03;;;;;;;;;;5028401;28;20025;-68
2021/05/08 00:04:26;;;;;;;145.85;51.70;;;;;;;;;;5019830;28;20032;-63
2021/05/08 00:06:53;;;;;;;140.43;51.35;;;;;;;;;;5029513;28;20030;-67
2021/05/08 00:09:20;;;;;;;135.32;48.60;;;;;;;;;;5021795;28;20109;-67
2021/05/08 00:11:47;;;;;;;143.75;50.13;;;;;;;;;;5021607;28;20025;-65
2021/05/08 00:14:14;;;;;;;128.23;50.13;;;;;;;;;;5019917;28;20120;-66
2021/05/08 00:16:41;;;;;;;136.50;46.90;;;;;;;;;;5027898;28;20014;-72
2021/05/08 00:19:08;;;;;;;124.47;47.03;;;;;;;;;;5026183;28;20417;-64
2021/05/08 00:21:35;;;;;;;118.72;46.22;;;;;;;;;;5029933;28;20075;-68
2021/05/08 00:24:04;;;;;;;119.63;44.05;;;;;;;;;;5020706;28;20029;-68
2021/05/08 00:26:31;;;;;;;126.88;46.22;;;;;;;;;;5025426;28;20026;-69
2021/05/08 00:28:58;;;;;;;132.70;47.40;;;;;;;;;;5021191;28;20029;-67
2021/05/08 00:31:25;;;;;;;132.00;49.80;;;;;;;;;;5018210;28;20041;-68
2021/05/08 00:33:52;;;;;;;139.75;51.05;;;;;;;;;;5020507;28;20045;-68
2021/05/08 00:36:19;;;;;;;137.02;50.00;;;;;;;;;;5029003;28;20022;-66
2021/05/08 00:38:46;;;;;;;145.27;50.80;;;;;;;;;;5031119;28;20025;-67
2021/05/08 00:41:13;;;;;;;140.52;52.38;;;;;;;;;;5025224;28;20041;-66
2021/05/08 00:43:40;;;;;;;125.47;45.35;;;;;;;;;;5019702;28;20029;-66
2021/05/08 00:46:07;;;;;;;149.50;51.13;;;;;;;;;;5019511;28;20440;-64
2021/05/08 00:48:35;;;;;;;144.35;52.78;;;;;;;;;;5028880;28;20083;-64
2021/05/08 00:51:02;;;;;;;143.20;51.40;;;;;;;;;;5030211;28;20025;-69
2021/05/08 00:53:29;;;;;;;128.73;50.10;;;;;;;;;;5030005;28;20021;-63
2021/05/08 00:55:56;;;;;;;128.73;49.00;;;;;;;;;;5028758;28;20025;-66
2021/05/08 00:58:23;;;;;;;145.48;53.13;;;;;;;;;;5015246;28;20033;-64
2021/05/08 01:00:54;;;;;;;135.02;48.97;;;;;;;;;;5017832;28;20184;-62
2021/05/08 01:03:21;;;;;;;137.80;50.72;;;;;;;;;;5022235;28;20051;-64
2021/05/08 01:05:48;;;;;;;152.90;52.33;;;;;;;;;;5030136;28;20037;-63
2021/05/08 01:08:15;;;;;;;161.50;55.50;;;;;;;;;;5029822;28;20048;-62
2021/05/08 01:10:42;;;;;;;154.45;55.60;;;;;;;;;;5031680;28;20489;-63
2021/05/08 01:13:10;;;;;;;148.93;55.45;;;;;;;;;;5031446;28;20029;-63
2021/05/08 01:15:37;;;;;;;149.23;54.38;;;;;;;;;;5030270;28;20017;-64
2021/05/08 01:18:04;;;;;;;162.23;56.30;;;;;;;;;;5016543;28;20117;-63
2021/05/08 01:20:31;;;;;;;169.77;57.40;;;;;;;;;;5017290;28;20021;-63
2021/05/08 01:22:58;;;;;;;156.07;53.88;;;;;;;;;;5023552;28;20041;-63
2021/05/08 01:25:26;;;;;;;162.20;56.33;;;;;;;;;;5024469;28;20084;-63
2021/05/08 01:27:57;;;;;;;152.85;56.17;;;;;;;;;;5031639;28;20075;-63
2021/05/08 01:30:26;;;;;;;161.38;56.28;;;;;;;;;;5029766;28;20025;-63
2021/05/08 01:32:53;;;;;;;151.18;56.08;;;;;;;;;;5023056;28;20446;-64
2021/05/08 01:35:20;;;;;;;165.18;56.28;;;;;;;;;;5030644;28;20062;-63
2021/05/08 01:37:47;;;;;;;170.23;58.40;;;;;;;;;;5026226;28;20520;-62
2021/05/08 01:40:16;;;;;;;151.93;54.78;;;;;;;;;;5031185;28;20029;-61
2021/05/08 01:42:45;;;;;;;143.27;53.50;;;;;;;;;;5018306;28;20072;-62
2021/05/08 01:45:17;;;;;;;163.15;55.92;;;;;;;;;;5016795;28;20068;-62
2021/05/08 01:47:44;;;;;;;152.70;52.95;;;;;;;;;;5016358;28;20021;-63
2021/05/08 01:50:14;;;;;;;153.68;54.92;;;;;;;;;;5022480;28;20117;-64
2021/05/08 01:52:42;;;;;;;142.10;52.08;;;;;;;;;;5023577;28;20025;-62
2021/05/08 01:55:13;;;;;;;147.02;52.45;;;;;;;;;;5016762;28;20044;-63
2021/05/08 01:57:44;;;;;;;137.20;51.05;;;;;;;;;;5016117;28;20076;-62
2021/05/08 02:00:14;;;;;;;137.25;51.35;;;;;;;;;;5017460;28;20036;-62
2021/05/08 02:02:42;;;;;;;145.00;52.90;;;;;;;;;;5019623;28;20057;-62
2021/05/08 02:05:09;;;;;;;127.75;48.38;;;;;;;;;;5017013;28;20048;-63
2021/05/08 02:07:36;;;;;;;136.02;50.03;;;;;;;;;;5018271;28;20029;-62
2021/05/08 02:10:05;;;;;;;129.77;51.03;;;;;;;;;;5021563;28;20097;-61
2021/05/08 02:12:33;;;;;;;142.68;50.30;;;;;;;;;;5028404;28;20017;-63
2021/05/08 02:15:00;;;;;;;123.30;49.08;;;;;;;;;;5024044;28;20092;-64
2021/05/08 02:17:27;;;;;;;142.02;49.33;;;;;;;;;;5025877;28;20420;-64
2021/05/08 02:19:54;;;;;;;131.30;49.47;;;;;;;;;;5029983;28;20067;-63
2021/05/08 02:22:21;;;;;;;140.77;50.42;;;;;;;;;;5024304;28;20056;-63
2021/05/08 02:24:48;;;;;;;119.88;43.15;;;;;;;;;;5026132;28;20159;-64
2021/05/08 02:27:15;;;;;;;126.82;46.15;;;;;;;;;;5024529;28;20030;-64
2021/05/08 02:29:42;;;;;;;118.70;44.47;;;;;;;;;;5024069;28;20026;-63
2021/05/08 02:32:09;;;;;;;113.47;43.53;;;;;;;;;;5019995;28;20033;-62
2021/05/08 02:34:36;;;;;;;121.43;42.97;;;;;;;;;;5022999;28;20037;-63
2021/05/08 02:37:04;;;;;;;107.20;41.22;;;;;;;;;;5020330;28;20036;-63
2021/05/08 02:39:31;;;;;;;105.63;40.72;;;;;;;;;;5020640;28;20013;-63
2021/05/08 02:41:58;;;;;;;112.10;41.50;;;;;;;;;;5020987;28;20753;-65
2021/05/08 02:44:25;;;;;;;97.53;37.80;;;;;;;;;;5019594;28;20037;-63
2021/05/08 02:46:52;;;;;;;85.85;34.47;;;;;;;;;;5023599;28;20116;-62
2021/05/08 02:49:19;;;;;;;90.82;35.55;;;;;;;;;;5022638;28;20097;-64
2021/05/08 02:51:47;;;;;;;91.97;34.03;;;;;;;;;;5025070;28;20063;-62
2021/05/08 02:54:14;;;;;;;80.55;32.10;;;;;;;;;;5027658;28;20465;-64
2021/05/08 02:56:42;;;;;;;83.15;31.95;;;;;;;;;;5026300;28;20083;-62
2021/05/08 02:59:09;;;;;;;83.18;30.88;;;;;;;;;;5026440;28;20082;-62
2021/05/08 03:01:36;;;;;;;80.18;30.50;;;;;;;;;;5027284;28;20359;-66
2021/05/08 03:04:04;;;;;;;77.40;30.38;;;;;;;;;;5024381;28;20021;-64
2021/05/08 03:06:31;;;;;;;74.35;28.65;;;;;;;;;;5027410;28;20588;-63
2021/05/08 03:08:58;;;;;;;67.05;27.27;;;;;;;;;;5025503;28;20098;-66
2021/05/08 03:11:26;;;;;;;70.40;25.92;;;;;;;;;;5021669;28;20097;-62
2021/05/08 03:13:53;;;;;;;63.60;26.05;;;;;;;;;;5028757;28;20060;-65
2021/05/08 03:16:20;;;;;;;68.00;25.42;;;;;;;;;;5020506;28;20046;-65
2021/05/08 03:18:48;;;;;;;60.67;24.73;;;;;;;;;;5025064;28;20033;-64
2021/05/08 03:21:15;;;;;;;59.47;23.95;;;;;;;;;;5024432;28;20021;-64
2021/05/08 03:23:42;;;;;;;61.53;23.83;;;;;;;;;;5022823;28;20474;-67
2021/05/08 03:26:10;;;;;;;62.40;23.02;;;;;;;;;;5023357;28;20033;-63
2021/05/08 03:28:37;;;;;;;58.15;21.83;;;;;;;;;;5029853;28;20520;-63
2021/05/08 03:31:04;;;;;;;59.20;22.55;;;;;;;;;;5025223;28;20053;-64
2021/05/08 03:33:31;;;;;;;54.45;20.38;;;;;;;;;;5021808;28;20045;-64
2021/05/08 03:35:58;;;;;;;57.15;21.35;;;;;;;;;;5025165;28;20030;-65
2021/05/08 03:38:25;;;;;;;47.60;19.52;;;;;;;;;;5028145;28;20385;-64
2021/05/08 03:40:52;;;;;;;53.72;19.20;;;;;;;;;;5025683;28;20104;-62
2021/05/08 03:43:19;;;;;;;48.33;19.05;;;;;;;;;;5015541;28;20085;-66
2021/05/08 03:45:49;;;;;;;54.03;18.48;;;;;;;;;;5025156;28;20030;-62
2021/05/08 03:48:16;;;;;;;43.40;17.30;;;;;;;;;;5028293;28;20716;-63
2021/05/08 03:50:43;;;;;;;44.45;17.25;;;;;;;;;;5017626;28;20022;-62
2021/05/08 03:53:10;;;;;;;44.63;16.08;;;;;;;;;;5030922;28;20389;-63
2021/05/08 03:55:38;;;;;;;39.33;15.02;;;;;;;;;;5032759;28;20072;-63
2021/05/08 03:58:06;;;;;;;37.63;13.30;;;;;;;;;;5033765;28;20016;-63
2021/05/08 04:00:33;;;;;;;45.30;15.65;;;;;;;;;;5046776;28;20022;-63
2021/05/08 04:03:00;;;;;;;37.25;13.95;;;;;;;;;;5027471;28;20021;-64
2021/05/08 04:05:29;;;;;;;40.22;13.82;;;;;;;;;;5029341;28;21041;-64
2021/05/08 04:07:56;;;;;;;35.28;13.00;;;;;;;;;;5021083;28;20029;-61
2021/05/08 04:10:23;;;;;;;32.80;13.30;;;;;;;;;;5024903;28;20025;-64
2021/05/08 04:12:50;;;;;;;42.47;15.73;;;;;;;;;;5024232;28;20036;-66
2021/05/08 04:15:17;;;;;;;30.77;12.73;;;;;;;;;;5028710;28;20377;-64
2021/05/08 04:17:44;;;;;;;35.67;13.20;;;;;;;;;;5031775;28;20028;-67
2021/05/08 04:20:12;;;;;;;34.92;13.05;;;;;;;;;;5033637;28;20389;-63
2021/05/08 04:22:39;;;;;;;35.67;12.20;;;;;;;;;;5033507;28;20021;-62
2021/05/08 04:25:06;;;;;;;28.10;11.13;;;;;;;;;;5034113;28;20033;-63
2021/05/08 04:27:33;;;;;;;37.83;12.43;;;;;;;;;;5033635;28;20037;-62
2021/05/08 04:30:00;;;;;;;33.17;12.00;;;;;;;;;;5033930;28;20014;-63
2021/05/08 04:32:27;;;;;;;28.13;10.52;;;;;;;;;;5033015;28;20758;-63
2021/05/08 04:34:54;;;;;;;29.10;11.80;;;;;;;;;;5033901;28;20567;-63
2021/05/08 04:37:21;;;;;;;28.00;10.68;;;;;;;;;;5033474;28;20025;-62
2021/05/08 04:39:48;;;;;;;31.33;11.18;;;;;;;;;;5032603;28;20381;-64
2021/05/08 04:42:15;;;;;;;29.52;9.63;;;;;;;;;;5033942;28;20021;-64
2021/05/08 04:44:42;;;;;;;30.15;10.32;;;;;;;;;;5033322;28;20038;-63
2021/05/08 04:47:12;;;;;;;24.88;9.60;;;;;;;;;;5034111;28;20025;-63
2021/05/08 04:49:40;;;;;;;25.15;9.07;;;;;;;;;;5033291;28;20014;-63
2021/05/08 04:52:07;;;;;;;23.35;8.73;;;;;;;;;;5033723;28;20477;-64
2021/05/08 04:54:34;;;;;;;22.65;8.13;;;;;;;;;;5033382;28;20586;-64
2021/05/08 04:57:02;;;;;;;20.73;7.65;;;;;;;;;;5033626;28;20036;-63
2021/05/08 04:59:30;;;;;;;23.38;8.40;;;;;;;;;;5033047;28;20021;-63
2021/05/08 05:01:57;;;;;;;18.58;7.50;;;;;;;;;;5033744;28;20035;-63
2021/05/08 05:04:24;;;;;;;17.63;7.32;;;;;;;;;;5033074;28;20079;-63
2021/05/08 05:06:51;;;;;;;19.92;7.85;;;;;;;;;;5033398;28;20025;-63
2021/05/08 05:09:18;;;;;;;19.08;7.28;;;;;;;;;;5031726;28;20044;-63
2021/05/08 05:11:45;;;;;;;19.40;7.53;;;;;;;;;;5033428;28;20018;-63
2021/05/08 05:14:12;;;;;;;26.75;8.18;;;;;;;;;;5032913;28;20013;-63
2021/05/08 05:16:39;;;;;;;20.45;7.53;;;;;;;;;;5033389;28;20075;-64
2021/05/08 05:19:06;;;;;;;19.92;6.75;;;;;;;;;;5032880;28;20381;-63
2021/05/08 05:21:33;;;;;;;21.60;7.10;;;;;;;;;;5032014;28;20018;-63
2021/05/08 05:24:00;;;;;;;15.18;6.18;;;;;;;;;;5031962;28;20588;-63
2021/05/08 05:26:27;;;;;;;19.00;6.90;;;;;;;;;;5032707;28;20037;-63
2021/05/08 05:28:54;;;;;;;16.88;6.40;;;;;;;;;;5033000;28;20616;-64
2021/05/08 05:31:21;;;;;;;16.75;6.68;;;;;;;;;;5032312;28;20105;-63
2021/05/08 05:33:48;;;;;;;22.10;6.43;;;;;;;;;;5031789;28;20041;-63
2021/05/08 05:36:15;;;;;;;18.83;6.45;;;;;;;;;;5032346;28;20029;-63
2021/05/08 05:38:43;;;;;;;14.15;5.93;;;;;;;;;;5032919;28;20021;-64
2021/05/08 05:41:10;;;;;;;16.23;5.82;;;;;;;;;;5032297;28;20021;-63
2021/05/08 05:43:37;;;;;;;19.13;5.32;;;;;;;;;;5032775;28;20113;-63
2021/05/08 05:46:04;;;;;;;16.05;5.70;;;;;;;;;;5032234;28;20029;-63
2021/05/08 05:48:31;;;;;;;11.32;4.40;;;;;;;;;;5032795;28;20473;-62
2021/05/08 05:50:58;;;;;;;12.60;5.15;;;;;;;;;;5031060;28;20026;-63
2021/05/08 05:53:25;;;;;;;12.38;5.30;;;;;;;;;;5031570;28;20025;-63
2021/05/08 05:55:52;;;;;;;15.73;4.68;;;;;;;;;;5032061;28;20080;-63
2021/05/08 05:58:19;;;;;;;12.32;5.47;;;;;;;;;;5032045;28;20431;-63
2021/05/08 06:00:46;;;;;;;14.25;4.97;;;;;;;;;;5032154;28;20039;-63
2021/05/08 06:03:13;;;;;;;16.58;4.63;;;;;;;;;;5032091;28;20100;-63
2021/05/08 06:05:40;;;;;;;10.35;4.45;;;;;;;;;;5030876;28;20033;-64
2021/05/08 06:08:11;;;;;;;13.73;4.25;;;;;;;;;;5032296;28;20017;-63
2021/05/08 06:10:37;;;;;;;12.02;4.93;;;;;;;;;;5031810;28;20116;-64
2021/05/08 06:13:05;;;;;;;13.63;4.35;;;;;;;;;;5032293;28;20211;-64
2021/05/08 06:15:32;;;;;;;13.18;5.15;;;;;;;;;;5031465;28;20025;-64
2021/05/08 06:17:59;;;;;;;12.63;4.00;;;;;;;;;;5032417;28;20075;-64
2021/05/08 06:20:26;;;;;;;13.60;3.75;;;;;;;;;;5031404;28;20025;-64
2021/05/08 06:22:53;;;;;;;12.10;3.78;;;;;;;;;;5032068;28;20067;-64
2021/05/08 06:25:21;;;;;;;10.05;3.47;;;;;;;;;;5031737;28;20435;-64
2021/05/08 06:27:48;;;;;;;14.68;3.95;;;;;;;;;;5024520;28;20477;-65
2021/05/08 06:30:15;;;;;;;11.77;3.92;;;;;;;;;;5014933;28;20378;-63
2021/05/08 06:32:42;;;;;;;11.00;3.75;;;;;;;;;;5010151;28;20026;-64
2021/05/08 06:35:09;;;;;;;10.75;3.83;;;;;;;;;;5011631;28;20079;-63
2021/05/08 06:37:36;;;;;;;9.52;3.17;;;;;;;;;;5012078;28;20038;-63
2021/05/08 06:40:03;;;;;;;8.75;3.35;;;;;;;;;;5012055;28;20014;-63
2021/05/08 06:42:31;;;;;;;9.57;3.40;;;;;;;;;;5030041;28;20083;-63
2021/05/08 06:44:58;;;;;;;8.95;3.40;;;;;;;;;;5031915;28;20084;-63
2021/05/08 06:47:25;;;;;;;9.02;3.22;;;;;;;;;;5030365;28;20485;-64
2021/05/08 06:49:52;;;;;;;8.32;3.03;;;;;;;;;;5031842;28;20021;-63
2021/05/08 06:52:19;;;;;;;9.25;3.22;;;;;;;;;;5031109;28;20018;-63
2021/05/08 06:54:46;;;;;;;10.05;3.38;;;;;;;;;;5031777;28;20540;-63
2021/05/08 06:57:13;;;;;;;9.18;3.30;;;;;;;;;;5031393;28;20445;-63
2021/05/08 06:59:40;;;;;;;7.43;2.75;;;;;;;;;;5032041;28;20351;-64
2021/05/08 07:02:13;;;;;;;10.82;3.00;;;;;;;;;;5027369;28;20029;-63
2021/05/08 07:04:40;;;;;;;8.43;2.90;;;;;;;;;;5011846;28;20037;-63
2021/05/08 07:07:07;;;;;;;9.02;2.53;;;;;;;;;;5011485;28;20033;-63
2021/05/08 07:09:34;;;;;;;11.25;2.67;;;;;;;;;;5012069;28;20474;-63
2021/05/08 07:12:01;;;;;;;6.20;2.88;;;;;;;;;;5011254;28;20064;-63
2021/05/08 07:14:28;;;;;;;9.90;2.95;;;;;;;;;;5011988;28;20478;-63
2021/05/08 07:16:55;;;;;;;8.05;2.83;;;;;;;;;;5011318;28;20046;-63
2021/05/08 07:19:22;;;;;;;8.60;2.78;;;;;;;;;;5012002;28;20112;-63
2021/05/08 07:21:49;;;;;;;8.48;2.63;;;;;;;;;;5011320;28;20105;-63
2021/05/08 07:24:16;;;;;;;7.88;2.40;;;;;;;;;;5011622;28;20029;-63
2021/05/08 07:26:43;;;;;;;7.32;2.15;;;;;;;;;;5012311;28;20030;-63
2021/05/08 07:29:10;;;;;;;6.80;2.72;;;;;;;;;;5015179;28;20483;-63
2021/05/08 07:31:37;;;;;;;7.78;2.50;;;;;;;;;;5015370;28;20026;-63
2021/05/08 07:34:04;;;;;;;8.18;2.08;;;;;;;;;;5014938;28;20057;-63
2021/05/08 07:36:31;;;;;;;7.05;2.53;;;;;;;;;;5015479;28;20093;-63
2021/05/08 07:38:58;;;;;;;6.20;2.58;;;;;;;;;;5014908;28;20022;-63
2021/05/08 07:41:25;;;;;;;9.85;2.45;;;;;;;;;;5015538;28;20044;-62
2021/05/08 07:43:52;;;;;;;8.82;2.40;;;;;;;;;;5014735;28;20026;-63
2021/05/08 07:46:19;;;;;;;6.63;2.00;;;;;;;;;;5015485;28;20116;-63
2021/05/08 07:48:46;;;;;;;5.30;2.13;;;;;;;;;;5014728;28;20438;-63
2021/05/08 07:51:13;;;;;;;6.95;2.13;;;;;;;;;;5015268;28;20026;-63
2021/05/08 07:53:41;;;;;;;7.35;1.80;;;;;;;;;;5014509;28;20022;-63
2021/05/08 07:56:08;;;;;;;8.80;2.42;;;;;;;;;;5015302;28;20040;-63
2021/05/08 07:58:35;;;;;;;7.20;1.98;;;;;;;;;;5014576;28;20108;-63
2021/05/08 08:01:02;;;;;;;7.45;2.17;;;;;;;;;;5015082;28;20021;-63
2021/05/08 08:03:29;;;;;;;5.72;2.08;;;;;;;;;;5014574;28;20501;-63
2021/05/08 08:05:56;;;;;;;7.97;1.90;;;;;;;;;;5014842;28;20048;-64
2021/05/08 08:08:23;;;;;;;8.10;2.03;;;;;;;;;;5014844;28;20025;-63
2021/05/08 08:10:50;;;;;;;5.18;2.20;;;;;;;;;;5013035;28;20440;-64
2021/05/08 08:13:17;;;;;;;4.85;1.80;;;;;;;;;;5014718;28;20116;-64
2021/05/08 08:15:43;;;;;;;10.60;1.98;;;;;;;;;;5014194;28;20022;-64
2021/05/08 08:18:11;;;;;;;9.65;2.00;;;;;;;;;;5014809;28;20046;-64
2021/05/08 08:20:38;;;;;;;6.70;1.92;;;;;;;;;;5014102;28;20030;-63
2021/05/08 08:23:05;;;;;;;3.72;1.83;;;;;;;;;;5014337;28;20045;-63
2021/05/08 08:25:32;;;;;;;6.70;1.77;;;;;;;;;;5014055;28;20069;-63
2021/05/08 08:28:00;;;;;;;4.93;2.05;;;;;;;;;;5014662;28;20022;-63
2021/05/08 08:30:27;;;;;;;5.60;1.85;;;;;;;;;;5013925;28;20026;-63
2021/05/08 08:32:54;;;;;;;6.22;1.77;;;;;;;;;;5013927;28;20172;-63
2021/05/08 08:35:21;;;;;;;6.03;1.63;;;;;;;;;;5014202;28;20108;-63
2021/05/08 08:37:48;;;;;;;5.05;1.73;;;;;;;;;;5014058;28;20021;-64
2021/05/08 08:40:15;;;;;;;6.07;1.42;;;;;;;;;;5013812;28;20030;-63
2021/05/08 08:42:42;;;;;;;7.57;1.60;;;;;;;;;;5014240;28;20022;-64
2021/05/08 08:45:09;;;;;;;7.40;1.50;;;;;;;;;;5013664;28;20117;-63
2021/05/08 08:47:37;;;;;;;3.88;1.60;;;;;;;;;;5013972;28;20386;-64
2021/05/08 08:50:06;;;;;;;5.28;1.60;;;;;;;;;;5014362;28;20017;-64
2021/05/08 08:52:33;;;;;;;8.63;1.75;;;;;;;;;;5013561;28;20018;-63
2021/05/08 08:55:00;;;;;;;6.30;1.60;;;;;;;;;;5013811;28;20105;-63
2021/05/08 08:57:32;;;;;;;5.10;1.80;;;;;;;;;;5013681;28;20103;-64
2021/05/08 09:00:00;;;;;;;10.73;2.25;;;;;;;;;;5013741;28;20029;-64
2021/05/08 09:02:28;;;;;;;4.72;1.73;;;;;;;;;;5012096;28;20029;-63
2021/05/08 09:04:59;;;;;;;5.32;1.42;;;;;;;;;;5013825;28;20034;-64
2021/05/08 09:07:30;;;;;;;3.85;1.58;;;;;;;;;;5013471;28;20029;-64
2021/05/08 09:09:57;;;;;;;6.18;1.63;;;;;;;;;;5013810;28;20072;-64
2021/05/08 09:12:29;;;;;;;5.50;1.60;;;;;;;;;;5013049;28;20026;-64
2021/05/08 09:14:56;;;;;;;4.45;1.75;;;;;;;;;;5013776;28;20065;-63
2021/05/08 09:17:27;;;;;;;2.83;1.25;;;;;;;;;;5013271;28;20029;-63
2021/05/08 09:19:58;;;;;;;3.40;1.38;;;;;;;;;;5013642;28;20032;-63
2021/05/08 09:22:30;;;;;;;3.53;1.25;;;;;;;;;;5013095;28;20030;-63
2021/05/08 09:25:01;;;;;;;4.50;1.40;;;;;;;;;;5013337;28;20091;-63
2021/05/08 09:27:43;;;;;;;4.15;1.48;;;;;;;;;;5012876;28;20041;-64
2021/05/08 09:30:30;;;;;;;5.57;1.63;;;;;;;;;;5013443;28;20014;-63
2021/05/08 09:32:58;;;;;;;5.63;1.45;;;;;;;;;;5012528;28;20054;-63
2021/05/08 09:35:26;;;;;;;4.00;1.02;;;;;;;;;;5013215;28;20037;-64
2021/05/08 09:38:07;;;;;;;3.08;1.20;;;;;;;;;;5012868;28;20370;-63
2021/05/08 09:40:36;;;;;;;3.28;1.42;;;;;;;;;;5013491;28;20152;-63
2021/05/08 09:43:09;;;;;;;5.13;1.20;;;;;;;;;;5012844;28;20018;-63
2021/05/08 09:45:39;;;;;;;4.75;1.20;;;;;;;;;;5012842;28;20037;-63
2021/05/08 09:48:25;;;;;;;7.78;1.25;;;;;;;;;;5012531;28;20374;-63
2021/05/08 09:50:52;;;;;;;3.38;1.33;;;;;;;;;;5012224;28;20101;-63
2021/05/08 09:53:26;;;;;;;5.97;1.38;;;;;;;;;;5012783;28;20065;-63
2021/05/08 09:55:53;;;;;;;4.68;1.45;;;;;;;;;;5012760;28;20022;-63
2021/05/08 09:58:24;;;;;;;3.30;1.10;;;;;;;;;;5012463;28;20651;-63
2021/05/08 10:00:52;;;;;;;3.88;1.27;;;;;;;;;;5012548;28;20076;-63
2021/05/08 10:03:20;;;;;;;4.75;1.63;;;;;;;;;;5012645;28;20030;-62
2021/05/08 10:05:58;;;;;;;3.92;1.40;;;;;;;;;;5012401;28;20046;-63
2021/05/08 10:08:25;;;;;;;4.47;1.20;;;;;;;;;;5012393;28;20030;-63
2021/05/08 10:10:53;;;;;;;6.40;1.77;;;;;;;;;;5012705;28;20548;-63
2021/05/08 10:13:20;;;;;;;3.17;1.10;;;;;;;;;;5012626;28;20037;-63
2021/05/08 10:15:48;;;;;;;3.55;1.20;;;;;;;;;;5011920;28;20018;-63
2021/05/08 10:18:15;;;;;;;4.30;1.63;;;;;;;;;;5012637;28;20033;-63
2021/05/08 10:20:43;;;;;;;4.05;1.38;;;;;;;;;;5011842;28;20037;-63
2021/05/08 10:23:11;;;;;;;4.43;1.30;;;;;;;;;;5012616;28;20355;-64
2021/05/08 10:25:39;;;;;;;6.30;1.40;;;;;;;;;;5011919;28;20056;-63
2021/05/08 10:28:06;;;;;;;4.35;1.30;;;;;;;;;;5012459;28;20018;-64
2021/05/08 10:30:35;;;;;;;5.45;1.20;;;;;;;;;;5026907;28;20030;-63
2021/05/08 10:33:07;;;;;;;3.22;1.15;;;;;;;;;;5013106;28;20383;-63
2021/05/08 10:35:41;;;;;;;3.60;1.52;;;;;;;;;;5031563;28;20595;-64
2021/05/08 10:38:10;;;;;;;5.78;1.15;;;;;;;;;;5031974;28;20018;-64
2021/05/08 10:40:53;;;;;;;4.20;1.17;;;;;;;;;;5031264;28;20381;-63
2021/05/08 10:43:39;;;;;;;3.42;1.02;;;;;;;;;;5031934;28;20025;-64
2021/05/08 10:46:06;;;;;;;5.78;1.23;;;;;;;;;;5031178;28;20029;-63
2021/05/08 10:48:33;;;;;;;2.83;1.00;;;;;;;;;;5032098;28;20022;-63
2021/05/08 10:51:00;;;;;;;6.97;1.40;;;;;;;;;;5031393;28;20013;-63
2021/05/08 10:53:59;;;;;;;2.95;1.00;;;;;;;;;;5031801;28;20033;-63
2021/05/08 10:56:36;;;;;;;5.30;1.30;;;;;;;;;;4987757;28;20034;-63
2021/05/08 10:59:04;;;;;;;5.43;1.10;;;;;;;;;;5031641;28;20014;-63
2021/05/08 11:01:43;;;;;;;4.03;1.45;;;;;;;;;;5032956;28;20657;-63
2021/05/08 11:04:11;;;;;;;6.82;1.13;;;;;;;;;;5035779;28;20029;-63
2021/05/08 11:06:39;;;;;;;4.65;1.35;;;;;;;;;;5033815;28;20040;-63
2021/05/08 11:09:06;;;;;;;5.28;1.00;;;;;;;;;;5034553;28;20397;-64
2021/05/08 11:11:46;;;;;;;4.50;0.90;;;;;;;;;;5035297;28;20469;-64
2021/05/08 11:14:13;;;;;;;5.13;1.10;;;;;;;;;;5035875;28;20108;-64
2021/05/08 11:17:09;;;;;;;4.40;1.27;;;;;;;;;;5034859;28;20112;-64
2021/05/08 11:19:36;;;;;;;4.22;1.30;;;;;;;;;;5018977;28;20038;-63
2021/05/08 11:22:07;;;;;;;2.20;0.90;;;;;;;;;;5033639;28;20091;-64
2021/05/08 11:24:38;;;;;;;4.13;1.10;;;;;;;;;;5034246;28;20388;-64
2021/05/08 11:27:26;;;;;;;4.85;1.17;;;;;;;;;;5034744;28;20057;-64
2021/05/08 11:29:53;;;;;;;4.43;1.20;;;;;;;;;;5034982;28;20515;-63
2021/05/08 11:32:20;;;;;;;3.33;1.27;;;;;;;;;;5034008;28;20512;-63
2021/05/08 11:34:47;;;;;;;4.32;1.05;;;;;;;;;;5035139;28;20033;-63
2021/05/08 11:37:15;;;;;;;6.82;1.13;;;;;;;;;;5033954;28;20021;-63
2021/05/08 11:39:44;;;;;;;7.57;1.35;;;;;;;;;;5035112;28;20017;-64
2021/05/08 11:42:11;;;;;;;4.35;1.08;;;;;;;;;;5034987;28;20064;-63
2021/05/08 11:44:40;;;;;;;2.78;1.02;;;;;;;;;;5033815;28;20033;-64
2021/05/08 11:47:27;;;;;;;5.85;1.05;;;;;;;;;;5034671;28;20030;-63
2021/05/08 11:50:14;;;;;;;3.60;1.30;;;;;;;;;;5025749;28;20030;-63
2021/05/08 11:52:45;;;;;;;2.42;1.10;;;;;;;;;;5034389;28;20028;-63
2021/05/08 11:55:18;;;;;;;5.30;0.90;;;;;;;;;;5034168;28;20076;-62
2021/05/08 11:57:54;;;;;;;4.95;1.10;;;;;;;;;;5032875;28;20051;-62
2021/05/08 12:00:23;;;;;;;2.60;0.90;;;;;;;;;;5033383;28;20478;-63
2021/05/08 12:02:51;;;;;;;5.03;1.00;;;;;;;;;;5034233;28;20500;-62
2021/05/08 12:05:25;;;;;;;2.60;1.00;;;;;;;;;;5033832;28;20497;-63
2021/05/08 12:07:53;;;;;;;7.78;1.20;;;;;;;;;;5034012;28;20036;-63
2021/05/08 12:10:23;;;;;;;7.20;1.20;;;;;;;;;;5033467;28;20061;-63
2021/05/08 12:12:51;;;;;;;5.18;1.17;;;;;;;;;;5032958;28;20067;-62
2021/05/08 12:15:28;;;;;;;3.13;1.02;;;;;;;;;;5032624;28;20025;-63
2021/05/08 12:17:56;;;;;;;5.78;1.08;;;;;;;;;;5014408;28;20025;-65
2021/05/08 12:20:30;;;;;;;7.30;1.00;;;;;;;;;;5031005;28;20045;-65
2021/05/08 12:23:02;;;;;;;4.38;1.00;;;;;;;;;;5033495;28;20026;-65
2021/05/08 12:25:30;;;;;;;4.38;1.00;;;;;;;;;;5032741;28;20033;-64
2021/05/08 12:28:15;;;;;;;4.97;1.23;;;;;;;;;;5030873;28;20033;-65
2021/05/08 12:30:42;;;;;;;3.40;1.23;;;;;;;;;;5014441;28;20057;-65
2021/05/08 12:33:19;;;;;;;6.20;1.52;;;;;;;;;;5024903;28;20037;-65
2021/05/08 12:35:46;;;;;;;3.95;1.00;;;;;;;;;;5032883;28;20037;-68
2021/05/08 12:38:14;;;;;;;2.83;1.00;;;;;;;;;;5032754;28;20025;-68
2021/05/08 12:40:41;;;;;;;4.00;1.27;;;;;;;;;;5029413;28;20029;-64
2021/05/08 12:43:08;;;;;;;6.07;1.13;;;;;;;;;;5021366;28;20022;-65
2021/05/08 12:45:35;;;;;;;2.60;0.80;;;;;;;;;;5030207;28;20026;-69
2021/05/08 12:48:02;;;;;;;5.68;1.42;;;;;;;;;;5018052;28;20497;-69
2021/05/08 12:50:33;;;;;;;3.80;0.80;;;;;;;;;;5031182;28;20489;-73
2021/05/08 12:53:01;;;;;;;5.90;1.10;;;;;;;;;;5031112;28;20029;-71
2021/05/08 12:55:29;;;;;;;6.45;1.40;;;;;;;;;;5033209;28;20033;-68
2021/05/08 12:58:06;;;;;;;2.33;0.80;;;;;;;;;;5032288;28;20417;-74
2021/05/08 13:00:44;;;;;;;3.80;0.95;;;;;;;;;;5033191;28;20363;-69
2021/05/08 13:06:06;;;;;;;3.95;1.02;;;;;;;;;;5031239;28;20080;-59
2021/05/08 13:08:49;;;;;;;4.95;1.10;;;;;;;;;;5030604;28;20029;-62
2021/05/08 13:11:15;;;;;;;;;;;;;;;;;;5032811;28;20044;-62
2021/05/08 13:13:42;;;;;;;6.22;1.42;;;;;;;;;;5031244;28;20306;-62
2021/05/08 13:16:09;;;;;;;5.60;1.05;;;;;;;;;;5030558;28;20372;-63
2021/05/08 13:18:36;;;;;;;5.90;1.15;;;;;;;;;;5031678;28;20056;-63
2021/05/08 13:21:03;;;;;;;5.38;1.10;;;;;;;;;;5031974;28;20029;-62
2021/05/08 13:23:30;;;;;;;3.53;0.90;;;;;;;;;;5031540;28;20026;-62
2021/05/08 13:25:57;;;;;;;2.90;1.10;;;;;;;;;;5026480;28;20505;-63
2021/05/08 13:28:24;;;;;;;5.35;0.95;;;;;;;;;;5029186;28;20377;-62
2021/05/08 13:30:51;;;;;;;7.00;1.42;;;;;;;;;;5031531;28;20021;-63
2021/05/08 13:33:18;;;;;;;2.97;0.80;;;;;;;;;;5031082;28;20042;-64
2021/05/08 13:35:45;;;;;;;4.15;1.05;;;;;;;;;;5031716;28;20067;-63
2021/05/08 13:38:12;;;;;;;6.80;1.10;;;;;;;;;;5030943;28;20018;-63
2021/05/08 13:40:38;;;;;;;4.00;1.05;;;;;;;;;;5030018;28;20026;-62
2021/05/08 13:43:06;;;;;;;9.32;1.33;;;;;;;;;;5030885;28;20116;-62
2021/05/08 13:45:33;;;;;;;10.48;1.75;;;;;;;;;;5031624;28;20120;-63
2021/05/08 13:47:59;;;;;;;13.82;2.38;;;;;;;;;;5017766;28;20029;-63
2021/05/08 13:50:27;;;;;;;9.13;2.20;;;;;;;;;;5025445;28;20022;-64
2021/05/08 13:52:54;;;;;;;13.40;1.33;;;;;;;;;;5019062;28;20018;-66
2021/05/08 13:55:21;;;;;;;4.57;1.25;;;;;;;;;;5031588;28;20028;-64
2021/05/08 13:57:48;;;;;;;10.70;1.48;;;;;;;;;;5031595;28;20515;-65
2021/05/08 14:00:15;;;;;;;9.00;1.38;;;;;;;;;;5030972;28;20029;-64
2021/05/08 14:02:42;;;;;;;7.20;1.52;;;;;;;;;;5030994;28;20024;-65
2021/05/08 14:05:09;;;;;;;8.18;1.50;;;;;;;;;;5031159;28;20507;-64
2021/05/08 14:07:36;;;;;;;15.57;2.15;;;;;;;;;;5022500;28;20359;-64
2021/05/08 14:10:04;;;;;;;12.55;1.65;;;;;;;;;;5031439;28;20100;-64
2021/05/08 14:12:31;;;;;;;9.90;1.80;;;;;;;;;;5031809;28;20104;-64
2021/05/08 14:14:58;;;;;;;7.88;1.30;;;;;;;;;;5030783;28;20048;-64
2021/05/08 14:17:25;;;;;;;8.55;1.05;;;;;;;;;;5031782;28;20025;-63
2021/05/08 14:19:52;;;;;;;10.73;1.58;;;;;;;;;;5030860;28;20041;-63
2021/05/08 14:22:19;;;;;;;8.43;1.40;;;;;;;;;;5031344;28;20036;-64
2021/05/08 14:24:46;;;;;;;6.75;1.30;;;;;;;;;;5030291;28;20492;-63
2021/05/08 14:27:13;;;;;;;8.65;1.50;;;;;;;;;;5030685;28;20083;-64
2021/05/08 14:29:40;;;;;;;9.35;1.58;;;;;;;;;;5031015;28;20017;-63
2021/05/08 14:32:07;;;;;;;11.45;1.52;;;;;;;;;;5031653;28;20037;-64
2021/05/08 14:34:34;;;;;;;7.70;1.33;;;;;;;;;;5031414;28;20393;-65
2021/05/08 14:37:03;;;;;;;5.97;1.40;;;;;;;;;;5031387;28;20362;-64
2021/05/08 14:39:30;;;;;;;8.35;1.50;;;;;;;;;;5031607;28;20032;-63
2021/05/08 14:41:57;;;;;;;7.50;1.50;;;;;;;;;;5030830;28;20033;-63